createdAt,value
2017-10-18T00:00:40.222Z,1003.5
2017-10-18T00:01:41.628Z,1003.5
2017-10-18T00:02:43.003Z,1003.5
2017-10-18T00:03:44.395Z,1003.5
2017-10-18T00:04:45.786Z,1003.5
2017-10-18T00:05:47.176Z,1003.5
2017-10-18T00:06:48.566Z,1003.5
2017-10-18T00:07:49.955Z,1003.5
2017-10-18T00:08:51.346Z,1003.5
2017-10-18T00:09:52.736Z,1003.4
2017-10-18T00:10:54.130Z,1003.4
2017-10-18T00:11:55.543Z,1003.4
2017-10-18T00:12:56.942Z,1003.5
2017-10-18T00:13:58.948Z,1003.5
2017-10-18T00:15:00.342Z,1003.4
2017-10-18T00:16:01.756Z,1003.4
2017-10-18T00:17:03.129Z,1003.4
2017-10-18T00:18:04.517Z,1003.4
2017-10-18T00:19:05.912Z,1003.4
2017-10-18T00:20:07.300Z,1003.4
2017-10-18T00:21:08.687Z,1003.4
2017-10-18T00:22:10.080Z,1003.4
2017-10-18T00:23:11.466Z,1003.4
2017-10-18T00:24:12.857Z,1003.3
2017-10-18T00:25:14.246Z,1003.3
2017-10-18T00:26:15.643Z,1003.3
2017-10-18T00:27:17.028Z,1003.3
2017-10-18T00:28:18.417Z,1003.3
2017-10-18T00:29:19.810Z,1003.3
2017-10-18T00:30:21.201Z,1003.3
2017-10-18T00:31:22.590Z,1003.3
2017-10-18T00:32:23.983Z,1003.3
2017-10-18T00:33:25.373Z,1003.3
2017-10-18T00:34:26.768Z,1003.3
2017-10-18T00:35:28.156Z,1003.3
2017-10-18T00:36:29.547Z,1003.3
2017-10-18T00:37:30.937Z,1003.3
2017-10-18T00:38:32.327Z,1003.3
2017-10-18T00:39:33.721Z,1003.3
2017-10-18T00:40:35.120Z,1003.2
2017-10-18T00:41:36.513Z,1003.3
2017-10-18T00:42:37.907Z,1003.2
2017-10-18T00:43:39.299Z,1003.2
2017-10-18T00:44:40.690Z,1003.2
2017-10-18T00:45:42.080Z,1003.2
2017-10-18T00:46:43.473Z,1003.3
2017-10-18T00:47:44.862Z,1003.2
2017-10-18T00:48:46.255Z,1003.2
2017-10-18T00:49:47.654Z,1003.2
2017-10-18T00:50:49.036Z,1003.2
2017-10-18T00:51:50.428Z,1003.2
2017-10-18T00:52:51.821Z,1003.2
2017-10-18T00:53:53.210Z,1003.2
2017-10-18T00:54:54.600Z,1003.2
2017-10-18T00:55:56.002Z,1003.1
2017-10-18T00:56:57.378Z,1003.1
2017-10-18T00:57:58.768Z,1003.1
2017-10-18T00:59:00.160Z,1003.1
2017-10-18T01:00:01.548Z,1003.0
2017-10-18T01:01:02.941Z,1003.0
2017-10-18T01:02:04.329Z,1003.0
2017-10-18T01:03:05.718Z,1003.0
2017-10-18T01:04:07.112Z,1003.0
2017-10-18T01:05:08.503Z,1003.0
2017-10-18T01:06:09.896Z,1002.9
2017-10-18T01:07:11.287Z,1002.9
2017-10-18T01:08:12.679Z,1003.0
2017-10-18T01:09:14.070Z,1003.0
2017-10-18T01:10:15.458Z,1002.9
2017-10-18T01:11:16.845Z,1002.9
2017-10-18T01:12:18.235Z,1002.9
2017-10-18T01:13:19.628Z,1002.9
2017-10-18T01:14:21.020Z,1002.9
2017-10-18T01:15:22.412Z,1002.8
2017-10-18T01:16:23.801Z,1002.9
2017-10-18T01:17:25.188Z,1002.8
2017-10-18T01:18:26.581Z,1002.8
2017-10-18T01:19:27.976Z,1002.9
2017-10-18T01:20:29.367Z,1002.8
2017-10-18T01:21:30.759Z,1002.8
2017-10-18T01:22:32.152Z,1002.8
2017-10-18T01:23:33.540Z,1002.8
2017-10-18T01:24:34.930Z,1002.8
2017-10-18T01:25:36.320Z,1002.9
2017-10-18T01:26:37.715Z,1002.8
2017-10-18T01:27:39.105Z,1002.7
2017-10-18T01:28:40.491Z,1002.7
2017-10-18T01:29:41.884Z,1002.8
2017-10-18T01:30:43.275Z,1002.8
2017-10-18T01:31:44.670Z,1002.8
2017-10-18T01:32:46.057Z,1002.7
2017-10-18T01:33:47.453Z,1002.7
2017-10-18T01:34:48.844Z,1002.7
2017-10-18T01:35:50.235Z,1002.7
2017-10-18T01:36:51.618Z,1002.6
2017-10-18T01:37:53.010Z,1002.7
2017-10-18T01:38:54.400Z,1002.6
2017-10-18T01:39:55.791Z,1002.7
2017-10-18T01:40:57.178Z,1002.6
2017-10-18T01:41:58.566Z,1002.6
2017-10-18T01:42:59.955Z,1002.6
2017-10-18T01:44:01.348Z,1002.6
2017-10-18T01:45:02.739Z,1002.6
2017-10-18T01:46:04.129Z,1002.6
2017-10-18T01:47:05.522Z,1002.6
2017-10-18T01:48:06.962Z,1002.6
2017-10-18T01:49:08.326Z,1002.5
2017-10-18T01:50:09.718Z,1002.5
2017-10-18T01:51:11.111Z,1002.5
2017-10-18T01:52:12.502Z,1002.5
2017-10-18T01:53:13.890Z,1002.5
2017-10-18T01:54:15.277Z,1002.5
2017-10-18T01:55:16.668Z,1002.5
2017-10-18T01:56:18.058Z,1002.5
2017-10-18T01:57:19.450Z,1002.4
2017-10-18T01:58:20.842Z,1002.4
2017-10-18T01:59:22.235Z,1002.4
2017-10-18T02:00:23.625Z,1002.4
2017-10-18T02:01:25.016Z,1002.4
2017-10-18T02:02:26.409Z,1002.4
2017-10-18T02:03:27.794Z,1002.4
2017-10-18T02:04:29.186Z,1002.3
2017-10-18T02:05:30.577Z,1002.3
2017-10-18T02:06:31.965Z,1002.3
2017-10-18T02:07:33.353Z,1002.3
2017-10-18T02:08:34.745Z,1002.3
2017-10-18T02:09:36.135Z,1002.3
2017-10-18T02:10:37.532Z,1002.3
2017-10-18T02:11:38.916Z,1002.3
2017-10-18T02:12:40.307Z,1002.3
2017-10-18T02:13:41.703Z,1002.3
2017-10-18T02:14:43.089Z,1002.3
2017-10-18T02:15:44.479Z,1002.3
2017-10-18T02:16:45.867Z,1002.3
2017-10-18T02:17:47.257Z,1002.2
2017-10-18T02:18:48.653Z,1002.2
2017-10-18T02:19:50.046Z,1002.2
2017-10-18T02:20:51.437Z,1002.2
2017-10-18T02:21:52.824Z,1002.2
2017-10-18T02:22:54.211Z,1002.2
2017-10-18T02:23:55.605Z,1002.2
2017-10-18T02:24:56.992Z,1002.2
2017-10-18T02:25:58.403Z,1002.2
2017-10-18T02:26:59.802Z,1002.2
2017-10-18T02:28:01.192Z,1002.2
2017-10-18T02:29:02.577Z,1002.2
2017-10-18T02:30:03.971Z,1002.2
2017-10-18T02:31:05.363Z,1002.2
2017-10-18T02:32:06.753Z,1002.2
2017-10-18T02:33:08.186Z,1002.2
2017-10-18T02:34:09.598Z,1002.2
2017-10-18T02:35:10.988Z,1002.2
2017-10-18T02:36:12.375Z,1002.1
2017-10-18T02:37:13.764Z,1002.1
2017-10-18T02:38:15.151Z,1002.1
2017-10-18T02:39:16.541Z,1002.1
2017-10-18T02:40:17.933Z,1002.0
2017-10-18T02:41:19.324Z,1002.0
2017-10-18T02:42:20.715Z,1002.0
2017-10-18T02:43:22.100Z,1002.0
2017-10-18T02:44:23.488Z,1001.9
2017-10-18T02:45:24.876Z,1002.0
2017-10-18T02:46:26.265Z,1001.9
2017-10-18T02:47:27.658Z,1002.0
2017-10-18T02:48:29.050Z,1001.9
2017-10-18T02:49:30.442Z,1001.9
2017-10-18T02:50:31.832Z,1001.9
2017-10-18T02:51:33.220Z,1001.9
2017-10-18T02:52:34.611Z,1001.9
2017-10-18T02:53:36.000Z,1001.9
2017-10-18T02:54:37.393Z,1001.9
2017-10-18T02:55:38.783Z,1001.9
2017-10-18T02:56:40.172Z,1001.9
2017-10-18T02:57:41.561Z,1001.9
2017-10-18T02:58:42.950Z,1001.9
2017-10-18T02:59:44.340Z,1001.9
2017-10-18T03:00:45.730Z,1001.8
2017-10-18T03:01:47.120Z,1001.8
2017-10-18T03:02:48.510Z,1001.8
2017-10-18T03:03:49.905Z,1001.8
2017-10-18T03:04:51.299Z,1001.8
2017-10-18T03:05:52.688Z,1001.8
2017-10-18T03:06:54.077Z,1001.8
2017-10-18T03:07:55.468Z,1001.8
2017-10-18T03:08:56.861Z,1001.8
2017-10-18T03:09:58.250Z,1001.8
2017-10-18T03:10:59.641Z,1001.8
2017-10-18T03:12:01.031Z,1001.9
2017-10-18T03:13:02.417Z,1001.9
2017-10-18T03:14:03.811Z,1001.8
2017-10-18T03:15:05.201Z,1001.9
2017-10-18T03:16:06.591Z,1001.8
2017-10-18T03:17:08.006Z,1001.8
2017-10-18T03:18:09.397Z,1001.8
2017-10-18T03:19:10.788Z,1001.8
2017-10-18T03:20:12.178Z,1001.8
2017-10-18T03:21:13.568Z,1001.8
2017-10-18T03:22:14.957Z,1001.8
2017-10-18T03:23:16.379Z,1001.7
2017-10-18T03:24:17.746Z,1001.8
2017-10-18T03:25:19.136Z,1001.8
2017-10-18T03:26:20.522Z,1001.8
2017-10-18T03:27:21.911Z,1001.8
2017-10-18T03:28:23.300Z,1001.8
2017-10-18T03:29:24.691Z,1001.8
2017-10-18T03:30:26.080Z,1001.8
2017-10-18T03:31:27.467Z,1001.8
2017-10-18T03:32:28.859Z,1001.8
2017-10-18T03:33:30.245Z,1001.7
2017-10-18T03:34:31.634Z,1001.8
2017-10-18T03:35:33.025Z,1001.7
2017-10-18T03:36:34.413Z,1001.7
2017-10-18T03:37:35.803Z,1001.7
2017-10-18T03:38:37.193Z,1001.7
2017-10-18T03:39:38.587Z,1001.7
2017-10-18T03:40:39.974Z,1001.7
2017-10-18T03:41:41.363Z,1001.6
2017-10-18T03:42:42.750Z,1001.6
2017-10-18T03:43:44.140Z,1001.6
2017-10-18T03:44:45.531Z,1001.6
2017-10-18T03:45:46.922Z,1001.6
2017-10-18T03:46:48.312Z,1001.6
2017-10-18T03:47:49.700Z,1001.6
2017-10-18T03:48:51.091Z,1001.7
2017-10-18T03:49:52.480Z,1001.7
2017-10-18T03:50:53.867Z,1001.6
2017-10-18T03:51:55.261Z,1001.6
2017-10-18T03:52:56.649Z,1001.6
2017-10-18T03:53:58.045Z,1001.6
2017-10-18T03:54:59.437Z,1001.6
2017-10-18T03:56:00.818Z,1001.6
2017-10-18T03:57:02.208Z,1001.6
2017-10-18T03:58:03.596Z,1001.6
2017-10-18T03:59:04.989Z,1001.6
2017-10-18T04:00:06.380Z,1001.6
2017-10-18T04:01:07.773Z,1001.6
2017-10-18T04:02:09.158Z,1001.6
2017-10-18T04:03:10.550Z,1001.6
2017-10-18T04:04:11.935Z,1001.6
2017-10-18T04:05:13.325Z,1001.6
2017-10-18T04:06:14.712Z,1001.6
2017-10-18T04:07:16.103Z,1001.7
2017-10-18T04:08:17.493Z,1001.6
2017-10-18T04:09:18.879Z,1001.6
2017-10-18T04:10:20.267Z,1001.6
2017-10-18T04:11:21.653Z,1001.6
2017-10-18T04:12:23.043Z,1001.6
2017-10-18T04:13:24.433Z,1001.6
2017-10-18T04:14:25.826Z,1001.6
2017-10-18T04:15:27.214Z,1001.6
2017-10-18T04:16:28.602Z,1001.5
2017-10-18T04:17:29.989Z,1001.6
2017-10-18T04:18:31.376Z,1001.6
2017-10-18T04:19:32.764Z,1001.6
2017-10-18T04:20:34.154Z,1001.6
2017-10-18T04:21:35.544Z,1001.5
2017-10-18T04:22:36.936Z,1001.5
2017-10-18T04:23:38.325Z,1001.5
2017-10-18T04:24:39.716Z,1001.5
2017-10-18T04:25:41.107Z,1001.5
2017-10-18T04:26:42.497Z,1001.5
2017-10-18T04:27:43.885Z,1001.5
2017-10-18T04:28:45.274Z,1001.5
2017-10-18T04:29:46.672Z,1001.5
2017-10-18T04:30:48.050Z,1001.4
2017-10-18T04:31:49.437Z,1001.5
2017-10-18T04:32:50.827Z,1001.5
2017-10-18T04:33:52.216Z,1001.5
2017-10-18T04:34:53.603Z,1001.4
2017-10-18T04:35:54.997Z,1001.4
2017-10-18T04:36:56.898Z,1001.4
2017-10-18T04:37:58.343Z,1001.5
2017-10-18T04:38:59.996Z,1001.4
2017-10-18T04:40:03.185Z,1001.4
2017-10-18T04:41:04.336Z,1001.4
2017-10-18T04:42:05.727Z,1001.4
2017-10-18T04:43:07.115Z,1001.4
2017-10-18T04:44:08.551Z,1001.4
2017-10-18T04:45:11.312Z,1001.4
2017-10-18T04:46:12.646Z,1001.4
2017-10-18T04:47:14.035Z,1001.4
2017-10-18T04:48:15.425Z,1001.3
2017-10-18T04:49:16.816Z,1001.3
2017-10-18T04:50:18.203Z,1001.3
2017-10-18T04:51:19.594Z,1001.3
2017-10-18T04:52:20.983Z,1001.3
2017-10-18T04:53:22.373Z,1001.2
2017-10-18T04:54:23.804Z,1001.3
2017-10-18T04:55:25.190Z,1001.3
2017-10-18T04:56:26.575Z,1001.3
2017-10-18T04:57:27.967Z,1001.3
2017-10-18T04:58:29.356Z,1001.3
2017-10-18T04:59:30.745Z,1001.3
2017-10-18T05:00:32.129Z,1001.3
2017-10-18T05:01:33.517Z,1001.3
2017-10-18T05:02:34.904Z,1001.3
2017-10-18T05:03:36.291Z,1001.3
2017-10-18T05:04:37.683Z,1001.3
2017-10-18T05:05:39.074Z,1001.3
2017-10-18T05:06:40.461Z,1001.3
2017-10-18T05:07:41.850Z,1001.3
2017-10-18T05:08:43.282Z,1001.4
2017-10-18T05:09:44.673Z,1001.4
2017-10-18T05:10:46.064Z,1001.3
2017-10-18T05:11:47.453Z,1001.3
2017-10-18T05:12:48.844Z,1001.3
2017-10-18T05:13:50.238Z,1001.3
2017-10-18T05:14:51.623Z,1001.3
2017-10-18T05:15:53.010Z,1001.3
2017-10-18T05:16:54.402Z,1001.3
2017-10-18T05:17:55.790Z,1001.2
2017-10-18T05:18:57.179Z,1001.2
2017-10-18T05:19:58.566Z,1001.2
2017-10-18T05:20:59.954Z,1001.2
2017-10-18T05:22:01.343Z,1001.2
2017-10-18T05:23:02.730Z,1001.2
2017-10-18T05:24:04.118Z,1001.2
2017-10-18T05:25:05.515Z,1001.2
2017-10-18T05:26:06.900Z,1001.2
2017-10-18T05:27:08.292Z,1001.2
2017-10-18T05:28:09.687Z,1001.2
2017-10-18T05:29:11.072Z,1001.2
2017-10-18T05:30:12.459Z,1001.2
2017-10-18T05:31:13.853Z,1001.2
2017-10-18T05:32:15.236Z,1001.2
2017-10-18T05:33:16.638Z,1001.1
2017-10-18T05:34:18.019Z,1001.1
2017-10-18T05:35:19.408Z,1001.1
2017-10-18T05:36:20.798Z,1001.1
2017-10-18T05:37:22.181Z,1001.1
2017-10-18T05:38:23.572Z,1001.1
2017-10-18T05:39:24.964Z,1001.1
2017-10-18T05:40:26.354Z,1001.1
2017-10-18T05:41:27.745Z,1001.1
2017-10-18T05:42:29.138Z,1001.1
2017-10-18T05:43:30.519Z,1001.2
2017-10-18T05:44:31.903Z,1001.2
2017-10-18T05:45:33.297Z,1001.2
2017-10-18T05:46:34.684Z,1001.2
2017-10-18T05:47:36.073Z,1001.2
2017-10-18T05:48:37.460Z,1001.2
2017-10-18T05:49:38.852Z,1001.2
2017-10-18T05:50:40.240Z,1001.3
2017-10-18T05:51:41.632Z,1001.2
2017-10-18T05:52:43.022Z,1001.2
2017-10-18T05:53:44.416Z,1001.2
2017-10-18T05:54:45.811Z,1001.1
2017-10-18T05:55:47.197Z,1001.1
2017-10-18T05:56:48.588Z,1001.1
2017-10-18T05:57:49.979Z,1001.2
2017-10-18T05:58:51.368Z,1001.1
2017-10-18T05:59:52.760Z,1001.1
2017-10-18T06:00:54.157Z,1001.2
2017-10-18T06:01:55.541Z,1001.1
2017-10-18T06:02:56.932Z,1001.2
2017-10-18T06:03:58.325Z,1001.2
2017-10-18T06:04:59.715Z,1001.2
2017-10-18T06:06:01.104Z,1001.2
2017-10-18T06:07:02.494Z,1001.2
2017-10-18T06:08:03.888Z,1001.2
2017-10-18T06:09:05.280Z,1001.2
2017-10-18T06:10:06.681Z,1001.3
2017-10-18T06:11:08.065Z,1001.2
2017-10-18T06:12:09.454Z,1001.2
2017-10-18T06:13:10.847Z,1001.2
2017-10-18T06:14:12.234Z,1001.2
2017-10-18T06:15:13.626Z,1001.2
2017-10-18T06:16:15.015Z,1001.2
2017-10-18T06:17:16.408Z,1001.1
2017-10-18T06:18:17.795Z,1001.1
2017-10-18T06:19:19.185Z,1001.1
2017-10-18T06:20:20.578Z,1001.1
2017-10-18T06:21:21.968Z,1001.2
2017-10-18T06:22:23.361Z,1001.2
2017-10-18T06:23:24.755Z,1001.1
2017-10-18T06:24:26.149Z,1001.2
2017-10-18T06:25:27.540Z,1001.2
2017-10-18T06:26:28.932Z,1001.2
2017-10-18T06:27:30.319Z,1001.2
2017-10-18T06:28:31.711Z,1001.2
2017-10-18T06:29:33.102Z,1001.2
2017-10-18T06:30:34.500Z,1001.2
2017-10-18T06:31:35.891Z,1001.1
2017-10-18T06:32:37.281Z,1001.2
2017-10-18T06:33:38.671Z,1001.1
2017-10-18T06:34:40.063Z,1001.1
2017-10-18T06:35:41.453Z,1001.2
2017-10-18T06:36:42.846Z,1001.1
2017-10-18T06:37:44.241Z,1001.2
2017-10-18T06:38:45.631Z,1001.2
2017-10-18T06:39:47.019Z,1001.1
2017-10-18T06:40:48.413Z,1001.1
2017-10-18T06:41:49.804Z,1001.1
2017-10-18T06:42:51.192Z,1001.1
2017-10-18T06:43:52.584Z,1001.1
2017-10-18T06:44:53.979Z,1001.1
2017-10-18T06:45:55.372Z,1001.2
2017-10-18T06:46:56.762Z,1001.1
2017-10-18T06:47:58.150Z,1001.2
2017-10-18T06:48:59.539Z,1001.2
2017-10-18T06:50:00.933Z,1001.2
2017-10-18T06:51:02.325Z,1001.2
2017-10-18T06:52:03.717Z,1001.2
2017-10-18T06:53:05.113Z,1001.2
2017-10-18T06:54:06.502Z,1001.2
2017-10-18T06:55:07.894Z,1001.2
2017-10-18T06:56:09.286Z,1001.2
2017-10-18T06:57:10.677Z,1001.2
2017-10-18T06:58:12.073Z,1001.2
2017-10-18T06:59:13.463Z,1001.2
2017-10-18T07:00:14.857Z,1001.2
2017-10-18T07:01:16.247Z,1001.2
2017-10-18T07:02:17.640Z,1001.2
2017-10-18T07:03:19.031Z,1001.2
2017-10-18T07:04:20.424Z,1001.2
2017-10-18T07:05:21.819Z,1001.2
2017-10-18T07:06:23.216Z,1001.2
2017-10-18T07:07:24.608Z,1001.2
2017-10-18T07:08:26.001Z,1001.2
2017-10-18T07:09:27.388Z,1001.2
2017-10-18T07:10:28.779Z,1001.2
2017-10-18T07:11:30.174Z,1001.2
2017-10-18T07:12:31.565Z,1001.2
2017-10-18T07:13:32.960Z,1001.2
2017-10-18T07:14:34.352Z,1001.2
2017-10-18T07:15:35.742Z,1001.3
2017-10-18T07:16:37.134Z,1001.2
2017-10-18T07:17:38.528Z,1001.2
2017-10-18T07:18:39.921Z,1001.2
2017-10-18T07:19:41.314Z,1001.2
2017-10-18T07:20:42.708Z,1001.2
2017-10-18T07:21:44.099Z,1001.2
2017-10-18T07:22:45.491Z,1001.2
2017-10-18T07:23:46.878Z,1001.2
2017-10-18T07:24:48.267Z,1001.2
2017-10-18T07:25:49.662Z,1001.3
2017-10-18T07:26:51.055Z,1001.3
2017-10-18T07:27:52.448Z,1001.3
2017-10-18T07:28:53.841Z,1001.3
2017-10-18T07:29:55.229Z,1001.3
2017-10-18T07:30:56.618Z,1001.2
2017-10-18T07:31:58.015Z,1001.3
2017-10-18T07:32:59.404Z,1001.3
2017-10-18T07:34:00.800Z,1001.3
2017-10-18T07:35:02.192Z,1001.3
2017-10-18T07:36:03.589Z,1001.3
2017-10-18T07:37:04.978Z,1001.3
2017-10-18T07:38:06.372Z,1001.2
2017-10-18T07:39:07.765Z,1001.3
2017-10-18T07:40:09.158Z,1001.3
2017-10-18T07:41:10.552Z,1001.3
2017-10-18T07:42:11.964Z,1001.3
2017-10-18T07:43:13.359Z,1001.3
2017-10-18T07:44:14.754Z,1001.3
2017-10-18T07:45:16.143Z,1001.3
2017-10-18T07:46:17.535Z,1001.3
2017-10-18T07:47:18.929Z,1001.3
2017-10-18T07:48:20.320Z,1001.3
2017-10-18T07:49:21.715Z,1001.3
2017-10-18T07:50:23.110Z,1001.3
2017-10-18T07:51:24.499Z,1001.2
2017-10-18T07:52:25.891Z,1001.2
2017-10-18T07:53:27.284Z,1001.2
2017-10-18T07:54:28.679Z,1001.2
2017-10-18T07:55:30.072Z,1001.3
2017-10-18T07:56:31.466Z,1001.1
2017-10-18T07:57:32.861Z,1001.2
2017-10-18T07:58:34.253Z,1001.2
2017-10-18T07:59:35.646Z,1001.2
2017-10-18T08:00:37.042Z,1001.2
2017-10-18T08:01:38.433Z,1001.2
2017-10-18T08:02:39.825Z,1001.2
2017-10-18T08:03:41.229Z,1001.2
2017-10-18T08:04:42.617Z,1001.2
2017-10-18T08:05:44.008Z,1001.2
2017-10-18T08:06:45.417Z,1001.1
2017-10-18T08:07:46.807Z,1001.1
2017-10-18T08:08:48.202Z,1001.2
2017-10-18T08:09:49.595Z,1001.1
2017-10-18T08:10:50.989Z,1001.1
2017-10-18T08:11:52.384Z,1001.1
2017-10-18T08:12:53.778Z,1001.1
2017-10-18T08:13:55.170Z,1001.1
2017-10-18T08:14:56.563Z,1001.1
2017-10-18T08:15:57.958Z,1001.1
2017-10-18T08:16:59.351Z,1001.0
2017-10-18T08:18:00.747Z,1001.0
2017-10-18T08:19:02.142Z,1001.0
2017-10-18T08:20:03.537Z,1001.0
2017-10-18T08:21:04.929Z,1001.0
2017-10-18T08:22:06.321Z,1001.1
2017-10-18T08:23:07.717Z,1001.0
2017-10-18T08:24:09.109Z,1001.0
2017-10-18T08:25:10.507Z,1001.0
2017-10-18T08:26:11.898Z,1001.0
2017-10-18T08:27:13.289Z,1000.9
2017-10-18T08:28:14.683Z,1000.9
2017-10-18T08:29:16.076Z,1001.0
2017-10-18T08:30:17.470Z,1001.0
2017-10-18T08:31:18.868Z,1001.0
2017-10-18T08:32:20.262Z,1001.0
2017-10-18T08:33:21.658Z,1000.9
2017-10-18T08:34:23.049Z,1000.9
2017-10-18T08:35:24.445Z,1000.9
2017-10-18T08:36:25.839Z,1000.9
2017-10-18T08:37:27.232Z,1000.9
2017-10-18T08:38:28.627Z,1001.0
2017-10-18T08:39:30.019Z,1000.9
2017-10-18T08:40:31.420Z,1000.9
2017-10-18T08:41:32.812Z,1000.9
2017-10-18T08:42:34.215Z,1000.9
2017-10-18T08:43:35.605Z,1000.9
2017-10-18T08:44:37.000Z,1000.9
2017-10-18T08:45:38.394Z,1001.0
2017-10-18T08:46:39.791Z,1000.9
2017-10-18T08:47:41.190Z,1001.0
2017-10-18T08:48:42.580Z,1001.0
2017-10-18T08:49:43.975Z,1001.0
2017-10-18T08:50:45.372Z,1000.9
2017-10-18T08:51:46.768Z,1000.9
2017-10-18T08:52:48.164Z,1001.0
2017-10-18T08:53:49.563Z,1001.0
2017-10-18T08:54:50.961Z,1001.0
2017-10-18T08:55:52.355Z,1000.9
2017-10-18T08:56:53.754Z,1001.0
2017-10-18T08:57:55.143Z,1001.0
2017-10-18T08:58:56.539Z,1000.9
2017-10-18T08:59:57.936Z,1001.0
2017-10-18T09:00:59.336Z,1000.9
2017-10-18T09:02:00.733Z,1000.9
2017-10-18T09:03:02.128Z,1000.9
2017-10-18T09:04:03.523Z,1001.0
2017-10-18T09:05:04.919Z,1001.0
2017-10-18T09:06:06.317Z,1001.0
2017-10-18T09:07:07.716Z,1001.0
2017-10-18T09:08:09.111Z,1001.0
2017-10-18T09:09:10.511Z,1001.0
2017-10-18T09:10:11.909Z,1001.0
2017-10-18T09:11:13.302Z,1001.0
2017-10-18T09:12:14.698Z,1001.0
2017-10-18T09:13:16.094Z,1001.1
2017-10-18T09:14:17.491Z,1001.1
2017-10-18T09:15:18.889Z,1001.0
2017-10-18T09:16:20.286Z,1001.1
2017-10-18T09:17:21.682Z,1001.0
2017-10-18T09:18:23.080Z,1001.0
2017-10-18T09:19:24.477Z,1001.0
2017-10-18T09:20:25.870Z,1001.0
2017-10-18T09:21:27.269Z,1001.0
2017-10-18T09:22:28.670Z,1001.1
2017-10-18T09:23:30.068Z,1001.1
2017-10-18T09:24:31.464Z,1001.2
2017-10-18T09:25:32.874Z,1001.1
2017-10-18T09:26:34.265Z,1001.1
2017-10-18T09:27:35.665Z,1001.1
2017-10-18T09:28:37.071Z,1001.2
2017-10-18T09:29:38.468Z,1001.2
2017-10-18T09:30:39.871Z,1001.2
2017-10-18T09:31:41.269Z,1001.2
2017-10-18T09:32:42.673Z,1001.2
2017-10-18T09:33:44.068Z,1001.2
2017-10-18T09:34:45.471Z,1001.2
2017-10-18T09:35:46.872Z,1001.2
2017-10-18T09:36:48.281Z,1001.2
2017-10-18T09:37:49.676Z,1001.2
2017-10-18T09:38:51.076Z,1001.2
2017-10-18T09:39:52.479Z,1001.2
2017-10-18T09:40:53.878Z,1001.2
2017-10-18T09:41:55.282Z,1001.2
2017-10-18T09:42:56.688Z,1001.2
2017-10-18T09:43:58.093Z,1001.2
2017-10-18T09:44:59.501Z,1001.2
2017-10-18T09:46:00.897Z,1001.2
2017-10-18T09:47:02.310Z,1001.2
2017-10-18T09:48:03.714Z,1001.2
2017-10-18T09:49:05.117Z,1001.2
2017-10-18T09:50:06.520Z,1001.1
2017-10-18T09:51:07.925Z,1001.1
2017-10-18T09:52:09.332Z,1001.1
2017-10-18T09:53:10.737Z,1001.2
2017-10-18T09:54:12.142Z,1001.2
2017-10-18T09:55:13.545Z,1001.2
2017-10-18T09:56:14.950Z,1001.2
2017-10-18T09:57:16.358Z,1001.2
2017-10-18T09:58:17.769Z,1001.2
2017-10-18T09:59:19.174Z,1001.2
2017-10-18T10:00:20.579Z,1001.1
2017-10-18T10:01:21.984Z,1001.1
2017-10-18T10:02:23.390Z,1001.1
2017-10-18T10:03:24.796Z,1001.1
2017-10-18T10:04:26.205Z,1001.1
2017-10-18T10:05:27.612Z,1001.0
2017-10-18T10:06:29.021Z,1001.0
2017-10-18T10:07:30.430Z,1001.0
2017-10-18T10:08:31.834Z,1001.1
2017-10-18T10:09:33.241Z,1001.1
2017-10-18T10:10:34.648Z,1001.1
2017-10-18T10:11:36.059Z,1001.0
2017-10-18T10:12:37.468Z,1001.1
2017-10-18T10:13:38.874Z,1001.1
2017-10-18T10:14:40.280Z,1001.1
2017-10-18T10:15:41.688Z,1001.1
2017-10-18T10:16:43.096Z,1001.0
2017-10-18T10:17:44.502Z,1001.1
2017-10-18T10:18:45.912Z,1001.0
2017-10-18T10:19:47.320Z,1001.1
2017-10-18T10:20:48.730Z,1001.1
2017-10-18T10:21:50.136Z,1001.1
2017-10-18T10:22:51.546Z,1001.1
2017-10-18T10:23:52.958Z,1001.1
2017-10-18T10:24:54.367Z,1001.1
2017-10-18T10:25:55.773Z,1001.1
2017-10-18T10:26:57.185Z,1001.1
2017-10-18T10:27:58.593Z,1001.1
2017-10-18T10:29:00.002Z,1001.2
2017-10-18T10:30:01.412Z,1001.1
2017-10-18T10:31:02.819Z,1001.1
2017-10-18T10:32:04.260Z,1001.1
2017-10-18T10:33:05.667Z,1001.2
2017-10-18T10:34:07.077Z,1001.2
2017-10-18T10:35:08.490Z,1001.2
2017-10-18T10:36:09.903Z,1001.1
2017-10-18T10:37:11.309Z,1001.2
2017-10-18T10:38:12.717Z,1001.2
2017-10-18T10:39:14.127Z,1001.2
2017-10-18T10:40:15.535Z,1001.1
2017-10-18T10:41:16.948Z,1001.2
2017-10-18T10:42:18.360Z,1001.2
2017-10-18T10:43:19.776Z,1001.1
2017-10-18T10:44:21.181Z,1001.1
2017-10-18T10:45:22.591Z,1001.1
2017-10-18T10:46:24.003Z,1001.1
2017-10-18T10:47:25.417Z,1001.1
2017-10-18T10:48:26.833Z,1001.0
2017-10-18T10:49:28.243Z,1001.0
2017-10-18T10:50:29.655Z,1001.0
2017-10-18T10:51:31.062Z,1001.0
2017-10-18T10:52:32.471Z,1001.0
2017-10-18T10:53:33.881Z,1001.0
2017-10-18T10:54:35.289Z,1000.9
2017-10-18T10:55:36.698Z,1000.9
2017-10-18T10:56:38.107Z,1000.9
2017-10-18T10:57:39.511Z,1000.9
2017-10-18T10:58:40.917Z,1000.9
2017-10-18T10:59:42.324Z,1000.9
2017-10-18T11:00:43.731Z,1000.9
2017-10-18T11:01:45.141Z,1000.9
2017-10-18T11:02:46.549Z,1000.8
2017-10-18T11:03:47.957Z,1000.9
2017-10-18T11:04:49.362Z,1000.8
2017-10-18T11:05:50.767Z,1000.8
2017-10-18T11:06:52.174Z,1000.8
2017-10-18T11:07:53.583Z,1000.8
2017-10-18T11:08:54.993Z,1000.8
2017-10-18T11:09:56.403Z,1000.9
2017-10-18T11:10:57.810Z,1000.9
2017-10-18T11:11:59.220Z,1000.8
2017-10-18T11:13:00.626Z,1000.9
2017-10-18T11:14:02.041Z,1000.9
2017-10-18T11:15:03.486Z,1000.9
2017-10-18T11:16:04.897Z,1000.9
2017-10-18T11:17:06.304Z,1000.9
2017-10-18T11:18:07.714Z,1000.9
2017-10-18T11:19:09.122Z,1000.8
2017-10-18T11:20:10.521Z,1000.8
2017-10-18T11:21:11.990Z,1000.8
2017-10-18T11:22:13.401Z,1000.8
2017-10-18T11:23:14.871Z,1000.8
2017-10-18T11:24:16.279Z,1000.8
2017-10-18T11:25:17.683Z,1000.7
2017-10-18T11:26:19.090Z,1000.7
2017-10-18T11:27:20.512Z,1000.7
2017-10-18T11:28:21.952Z,1000.7
2017-10-18T11:29:23.409Z,1000.7
2017-10-18T11:30:24.824Z,1000.6
2017-10-18T11:31:26.227Z,1000.7
2017-10-18T11:32:27.637Z,1000.6
2017-10-18T11:33:29.040Z,1000.6
2017-10-18T11:34:30.438Z,1000.6
2017-10-18T11:35:31.842Z,1000.6
2017-10-18T11:36:33.246Z,1000.6
2017-10-18T11:37:34.648Z,1000.6
2017-10-18T11:38:36.055Z,1000.5
2017-10-18T11:39:37.458Z,1000.5
2017-10-18T11:40:38.860Z,1000.5
2017-10-18T11:41:40.261Z,1000.5
2017-10-18T11:42:41.661Z,1000.5
2017-10-18T11:43:43.066Z,1000.5
2017-10-18T11:44:44.470Z,1000.5
2017-10-18T11:45:45.915Z,1000.6
2017-10-18T11:46:47.323Z,1000.5
2017-10-18T11:47:48.727Z,1000.6
2017-10-18T11:48:50.132Z,1000.5
2017-10-18T11:49:51.534Z,1000.5
2017-10-18T11:50:52.935Z,1000.5
2017-10-18T11:51:54.341Z,1000.5
2017-10-18T11:52:55.742Z,1000.5
2017-10-18T11:53:57.162Z,1000.5
2017-10-18T11:54:58.551Z,1000.5
2017-10-18T11:55:59.954Z,1000.4
2017-10-18T11:57:01.356Z,1000.4
2017-10-18T11:58:02.760Z,1000.5
2017-10-18T11:59:04.161Z,1000.4
2017-10-18T12:00:05.567Z,1000.4
2017-10-18T12:01:06.968Z,1000.4
2017-10-18T12:02:08.370Z,1000.4
2017-10-18T12:03:09.773Z,1000.4
2017-10-18T12:04:11.174Z,1000.4
2017-10-18T12:05:12.576Z,1000.4
2017-10-18T12:06:13.977Z,1000.4
2017-10-18T12:07:15.383Z,1000.4
2017-10-18T12:08:16.787Z,1000.4
2017-10-18T12:09:18.188Z,1000.3
2017-10-18T12:10:19.593Z,1000.3
2017-10-18T12:11:20.990Z,1000.3
2017-10-18T12:12:22.393Z,1000.3
2017-10-18T12:13:23.798Z,1000.3
2017-10-18T12:14:25.201Z,1000.3
2017-10-18T12:15:26.606Z,1000.3
2017-10-18T12:16:28.008Z,1000.3
2017-10-18T12:17:29.414Z,1000.3
2017-10-18T12:18:30.813Z,1000.3
2017-10-18T12:19:32.216Z,1000.3
2017-10-18T12:20:33.621Z,1000.2
2017-10-18T12:21:35.018Z,1000.2
2017-10-18T12:22:36.422Z,1000.2
2017-10-18T12:23:37.822Z,1000.2
2017-10-18T12:24:39.224Z,1000.2
2017-10-18T12:25:40.625Z,1000.2
2017-10-18T12:26:42.026Z,1000.2
2017-10-18T12:27:43.429Z,1000.2
2017-10-18T12:28:44.834Z,1000.2
2017-10-18T12:29:46.241Z,1000.2
2017-10-18T12:30:47.639Z,1000.2
2017-10-18T12:31:49.040Z,1000.2
2017-10-18T12:32:50.442Z,1000.2
2017-10-18T12:33:51.848Z,1000.2
2017-10-18T12:34:53.249Z,1000.2
2017-10-18T12:35:54.650Z,1000.2
2017-10-18T12:36:56.056Z,1000.1
2017-10-18T12:37:57.457Z,1000.1
2017-10-18T12:38:58.860Z,1000.2
2017-10-18T12:40:00.262Z,1000.2
2017-10-18T12:41:01.664Z,1000.1
2017-10-18T12:42:03.068Z,1000.1
2017-10-18T12:43:04.470Z,1000.1
2017-10-18T12:44:05.873Z,1000.1
2017-10-18T12:45:07.275Z,1000.1
2017-10-18T12:46:08.677Z,1000.1